<?xml version="1.0" encoding="UTF-8" standalone="no" ?>
<gpx xmlns="http://www.topografix.com/GPX/1/1" xmlns:xsi="http://www.w3.org/2001/XMLSchema-instance" xsi:schemaLocation="http://www.topografix.com/GPX/1/1 http://www.topografix.com/GPX/1/1/gpx.xsd" version="1.1" creator="VisuGPX - https://www.visugpx.com">
  <metadata>
    <name>65 - PEDESTRE - La fruitière au lac d\'Estom et retour</name>
    <desc><![CDATA[Petite sortie]]></desc>
  </metadata>
  <wpt lat="42.85205" lon="-0.09777">
    <ele>1541.107421875</ele>
    <name><![CDATA[001]]></name>
    <desc><![CDATA[09-JUL-15 10:54:57]]></desc>
    <cmt><![CDATA[09-JUL-15 10:54:57]]></cmt>
  </wpt>
  <wpt lat="42.80774" lon="-0.09945">
    <ele>1783.8386230469</ele>
    <name><![CDATA[002]]></name>
    <desc><![CDATA[09-JUL-15 11:40:35]]></desc>
    <cmt><![CDATA[09-JUL-15 11:40:35]]></cmt>
  </wpt>
  <wpt lat="42.85352" lon="-0.09853">
    <ele>1369.1</ele>
    <name><![CDATA[La Fruitière]]></name>
    <desc><![CDATA[La Fruitière]]></desc>
    <cmt><![CDATA[La Fruitière]]></cmt>
  </wpt>
  <wpt lat="42.80625" lon="-0.09995">
    <ele>1802</ele>
    <name><![CDATA[Lac D'Estom]]></name>
    <desc><![CDATA[Lac D'Estom]]></desc>
    <cmt><![CDATA[Lac D'Estom]]></cmt>
  </wpt>
  <wpt lat="42.853" lon="-0.09797">
    <ele>1365.2</ele>
    <name><![CDATA[Parking]]></name>
    <desc><![CDATA[Parking la Fruitière 1371m]]></desc>
    <cmt><![CDATA[Parking la Fruitière 1371m]]></cmt>
  </wpt>
  <wpt lat="42.80846" lon="-0.09922">
    <ele>1796.9</ele>
    <name><![CDATA[Refuge D'Estom]]></name>
    <desc><![CDATA[Refuge D'Estom (Hôtellerie)]]></desc>
    <cmt><![CDATA[Refuge D'Estom (Hôtellerie)]]></cmt>
  </wpt>
  <trk>
    <name><![CDATA[ACTIVE LOG 005]]></name>
    <trkseg>
      <trkpt lat="42.82057" lon="-0.09787">
        <ele>1589.6772460938</ele>
        <time>2015-07-09T09:07:19Z</time>
      </trkpt>
      <trkpt lat="42.82035" lon="-0.09795">
        <ele>1593.5224609375</ele>
        <time>2015-07-09T09:07:40Z</time>
      </trkpt>
      <trkpt lat="42.82027" lon="-0.09803">
        <ele>1593.5224609375</ele>
        <time>2015-07-09T09:07:55Z</time>
      </trkpt>
      <trkpt lat="42.82019" lon="-0.09807">
        <ele>1594.9643554688</ele>
        <time>2015-07-09T09:08:08Z</time>
      </trkpt>
      <trkpt lat="42.82015" lon="-0.09812">
        <ele>1597.8486328125</ele>
        <time>2015-07-09T09:08:20Z</time>
      </trkpt>
      <trkpt lat="42.8201" lon="-0.09811">
        <ele>1597.8486328125</ele>
        <time>2015-07-09T09:08:25Z</time>
      </trkpt>
      <trkpt lat="42.82004" lon="-0.09814">
        <ele>1597.8486328125</ele>
        <time>2015-07-09T09:08:32Z</time>
      </trkpt>
      <trkpt lat="42.8199" lon="-0.09808">
        <ele>1595.92578125</ele>
        <time>2015-07-09T09:08:43Z</time>
      </trkpt>
      <trkpt lat="42.81977" lon="-0.09809">
        <ele>1595.92578125</ele>
        <time>2015-07-09T09:08:50Z</time>
      </trkpt>
      <trkpt lat="42.81966" lon="-0.09812">
        <ele>1597.8486328125</ele>
        <time>2015-07-09T09:09:03Z</time>
      </trkpt>
      <trkpt lat="42.81943" lon="-0.09814">
        <ele>1595.4450683594</ele>
        <time>2015-07-09T09:09:23Z</time>
      </trkpt>
      <trkpt lat="42.81931" lon="-0.09816">
        <ele>1596.8872070312</ele>
        <time>2015-07-09T09:09:35Z</time>
      </trkpt>
      <trkpt lat="42.81924" lon="-0.09799">
        <ele>1596.4067382812</ele>
        <time>2015-07-09T09:09:46Z</time>
      </trkpt>
      <trkpt lat="42.81918" lon="-0.0979">
        <ele>1595.92578125</ele>
        <time>2015-07-09T09:09:56Z</time>
      </trkpt>
      <trkpt lat="42.81901" lon="-0.09774">
        <ele>1596.4067382812</ele>
        <time>2015-07-09T09:10:11Z</time>
      </trkpt>
      <trkpt lat="42.81897" lon="-0.09773">
        <ele>1595.4450683594</ele>
        <time>2015-07-09T09:10:15Z</time>
      </trkpt>
      <trkpt lat="42.81885" lon="-0.09767">
        <ele>1596.4067382812</ele>
        <time>2015-07-09T09:10:27Z</time>
      </trkpt>
      <trkpt lat="42.81884" lon="-0.09775">
        <ele>1596.8872070312</ele>
        <time>2015-07-09T09:10:37Z</time>
      </trkpt>
      <trkpt lat="42.81879" lon="-0.09779">
        <ele>1598.8098144531</ele>
        <time>2015-07-09T09:10:46Z</time>
      </trkpt>
      <trkpt lat="42.81878" lon="-0.09779">
        <ele>1598.8098144531</ele>
        <time>2015-07-09T09:10:47Z</time>
      </trkpt>
      <trkpt lat="42.81869" lon="-0.09787">
        <ele>1600.732421875</ele>
        <time>2015-07-09T09:11:00Z</time>
      </trkpt>
      <trkpt lat="42.81858" lon="-0.09789">
        <ele>1600.251953125</ele>
        <time>2015-07-09T09:11:13Z</time>
      </trkpt>
      <trkpt lat="42.81855" lon="-0.0979">
        <ele>1600.251953125</ele>
        <time>2015-07-09T09:11:15Z</time>
      </trkpt>
      <trkpt lat="42.81848" lon="-0.09798">
        <ele>1600.251953125</ele>
        <time>2015-07-09T09:11:29Z</time>
      </trkpt>
      <trkpt lat="42.81836" lon="-0.09808">
        <ele>1600.732421875</ele>
        <time>2015-07-09T09:11:43Z</time>
      </trkpt>
      <trkpt lat="42.81822" lon="-0.09819">
        <ele>1601.2131347656</ele>
        <time>2015-07-09T09:11:58Z</time>
      </trkpt>
      <trkpt lat="42.81806" lon="-0.09817">
        <ele>1602.1743164062</ele>
        <time>2015-07-09T09:12:12Z</time>
      </trkpt>
      <trkpt lat="42.81796" lon="-0.09817">
        <ele>1602.1743164062</ele>
        <time>2015-07-09T09:12:26Z</time>
      </trkpt>
      <trkpt lat="42.81794" lon="-0.09819">
        <ele>1602.1743164062</ele>
        <time>2015-07-09T09:12:28Z</time>
      </trkpt>
      <trkpt lat="42.81787" lon="-0.09825">
        <ele>1602.6550292969</ele>
        <time>2015-07-09T09:12:37Z</time>
      </trkpt>
      <trkpt lat="42.8178" lon="-0.09823">
        <ele>1603.1357421875</ele>
        <time>2015-07-09T09:12:45Z</time>
      </trkpt>
      <trkpt lat="42.81765" lon="-0.09819">
        <ele>1603.6164550781</ele>
        <time>2015-07-09T09:12:59Z</time>
      </trkpt>
      <trkpt lat="42.81761" lon="-0.0982">
        <ele>1604.0971679688</ele>
        <time>2015-07-09T09:13:06Z</time>
      </trkpt>
      <trkpt lat="42.81753" lon="-0.09822">
        <ele>1604.5776367188</ele>
        <time>2015-07-09T09:13:14Z</time>
      </trkpt>
      <trkpt lat="42.81741" lon="-0.0982">
        <ele>1604.5776367188</ele>
        <time>2015-07-09T09:13:28Z</time>
      </trkpt>
      <trkpt lat="42.81733" lon="-0.09834">
        <ele>1605.0583496094</ele>
        <time>2015-07-09T09:13:43Z</time>
      </trkpt>
      <trkpt lat="42.81731" lon="-0.09841">
        <ele>1605.5390625</ele>
        <time>2015-07-09T09:13:57Z</time>
      </trkpt>
      <trkpt lat="42.81725" lon="-0.09847">
        <ele>1606.5002441406</ele>
        <time>2015-07-09T09:14:07Z</time>
      </trkpt>
      <trkpt lat="42.81722" lon="-0.09845">
        <ele>1607.4616699219</ele>
        <time>2015-07-09T09:14:14Z</time>
      </trkpt>
      <trkpt lat="42.81707" lon="-0.09845">
        <ele>1606.5002441406</ele>
        <time>2015-07-09T09:14:28Z</time>
      </trkpt>
      <trkpt lat="42.81704" lon="-0.09844">
        <ele>1606.01953125</ele>
        <time>2015-07-09T09:14:31Z</time>
      </trkpt>
      <trkpt lat="42.81698" lon="-0.09842">
        <ele>1606.9809570312</ele>
        <time>2015-07-09T09:14:41Z</time>
      </trkpt>
      <trkpt lat="42.81687" lon="-0.09845">
        <ele>1607.9423828125</ele>
        <time>2015-07-09T09:15:00Z</time>
      </trkpt>
      <trkpt lat="42.81693" lon="-0.09859">
        <ele>1607.9423828125</ele>
        <time>2015-07-09T09:15:11Z</time>
      </trkpt>
      <trkpt lat="42.81698" lon="-0.09859">
        <ele>1607.4616699219</ele>
        <time>2015-07-09T09:15:14Z</time>
      </trkpt>
      <trkpt lat="42.81709" lon="-0.09868">
        <ele>1608.4228515625</ele>
        <time>2015-07-09T09:15:37Z</time>
      </trkpt>
      <trkpt lat="42.81712" lon="-0.09868">
        <ele>1609.8647460938</ele>
        <time>2015-07-09T09:15:42Z</time>
      </trkpt>
      <trkpt lat="42.8173" lon="-0.09819">
        <ele>1612.7490234375</ele>
        <time>2015-07-09T09:16:09Z</time>
      </trkpt>
    </trkseg>
  </trk>
</gpx>